Terminal Aerodrome Forecast
Issued by NWS

Home | Current Version | Previous Version | Text Only | Print | Product List | Glossary On
Versions: 1 2 3 4 5 6 7 8 9 10 11 12 13 14 15 16 17 18 19 20 21 22
711
FTUS41 KBGM 271333 AAA
TAFITH
TAF AMD
KITH 271333Z 2714/2812 20005KT P6SM -SHRA SCT012 OVC025
      TEMPO 2714/2718 3SM SHRA BR OVC012
     FM271900 29005KT P6SM BKN050
     FM280000 VRB04KT P6SM BKN120=

USA.gov is the U.S. government's official web portal to all federal, state and local government web resources and services.